Time;durP1;ratioP1;P1;durP2;ratioP2;P2;SDS_P1;SDS_P2;PMS_P1;PMS_P2;Temp;Humidity;BMP_temperature;BMP_pressure;BME280_temperature;BME280_humidity;BME280_pressure;Samples;Min_cycle;Max_cycle;Signal;HPM_P1;HPM_P2
2022/04/19 00:00:19;;;;;;;4.18;1.02;;;;;;;26.15;28.15;101669.47;4957975;29;20072;-48
2022/04/19 00:02:48;;;;;;;2.45;0.75;;;;;;;26.14;28.25;101663.34;4940807;29;20430;-50
2022/04/19 00:05:17;;;;;;;4.07;1.20;;;;;;;26.14;28.35;101659.81;4958131;29;20024;-49
2022/04/19 00:07:45;;;;;;;3.03;0.95;;;;;;;26.14;28.16;101652.81;4940615;29;20437;-52
2022/04/19 00:10:14;;;;;;;2.15;0.77;;;;;;;26.12;28.15;101654.53;4957895;29;20501;-48
2022/04/19 00:12:43;;;;;;;3.28;1.17;;;;;;;26.06;28.25;101654.41;4957490;29;20038;-49
2022/04/19 00:15:11;;;;;;;2.55;0.90;;;;;;;26.06;28.22;101652.66;4957155;29;20028;-52
2022/04/19 00:17:40;;;;;;;4.13;1.35;;;;;;;26.08;28.46;101650.06;4957472;29;20169;-49
2022/04/19 00:20:09;;;;;;;3.45;1.10;;;;;;;26.03;28.53;101644.75;4957852;29;20050;-49
2022/04/19 00:22:38;;;;;;;2.47;0.77;;;;;;;26.04;28.46;101642.97;4957913;29;20397;-50
2022/04/19 00:25:07;;;;;;;2.67;1.08;;;;;;;26.07;28.41;101643.91;4940823;29;20027;-52
2022/04/19 00:27:36;;;;;;;1.90;0.80;;;;;;;26.05;28.56;101640.41;4940577;29;20462;-48
2022/04/19 00:30:05;;;;;;;2.58;1.10;;;;;;;26.04;28.47;101649.13;4957543;29;20027;-48
2022/04/19 00:32:33;;;;;;;2.83;1.25;;;;;;;26.10;28.25;101653.59;4957756;29;20019;-51
2022/04/19 00:35:03;;;;;;;2.00;0.80;;;;;;;26.07;28.53;101643.91;4957355;29;20097;-50
2022/04/19 00:37:31;;;;;;;2.80;0.98;;;;;;;26.02;28.28;101637.72;4957381;29;20085;-52
2022/04/19 00:40:01;;;;;;;2.58;0.90;;;;;;;26.01;28.40;101632.41;4957323;29;20374;-47
2022/04/19 00:42:30;;;;;;;2.05;1.02;;;;;;;26.00;28.60;101643.78;4957274;29;20035;-51
2022/04/19 00:44:59;;;;;;;2.55;1.02;;;;;;;26.01;28.13;101632.41;4940091;29;20023;-48
2022/04/19 00:47:28;;;;;;;2.08;0.90;;;;;;;25.94;28.34;101627.09;4957081;29;20035;-51
2022/04/19 00:49:57;;;;;;;3.45;1.13;;;;;;;25.92;28.63;101631.44;4957300;29;20395;-49
2022/04/19 00:52:25;;;;;;;2.25;0.95;;;;;;;25.90;28.55;101632.25;4956704;29;20038;-49
2022/04/19 00:54:54;;;;;;;3.03;1.20;;;;;;;25.88;28.49;101636.63;4957027;29;20063;-49
2022/04/19 00:57:22;;;;;;;4.45;1.38;;;;;;;25.90;28.55;101621.72;4956904;29;20027;-49
2022/04/19 00:59:51;;;;;;;3.75;1.33;;;;;;;25.91;28.47;101623.50;4939966;29;20027;-51
2022/04/19 01:02:20;;;;;;;3.45;0.80;;;;;;;25.94;28.09;101619.19;4956559;28;20026;-55
2022/04/19 01:04:49;;;;;;;4.03;1.00;;;;;;;25.90;28.20;101611.22;4956489;29;20037;-52
2022/04/19 01:07:19;;;;;;;3.92;1.10;;;;;;;25.91;28.52;101613.88;4956647;29;20035;-49
2022/04/19 01:09:48;;;;;;;3.42;1.05;;;;;;;25.92;28.37;101614.75;4956483;29;20105;-50
2022/04/19 01:15:10;;;;;;;2.30;1.08;;;;;;;25.85;28.38;101600.63;4952900;29;20058;-53
2022/04/19 01:17:40;;;;;;;2.20;1.00;;;;;;;25.83;28.54;101598.88;4956501;29;20071;-47
2022/04/19 01:20:10;;;;;;;3.03;0.98;;;;;;;25.88;28.48;101600.69;4956375;29;20031;-50
2022/04/19 01:22:40;;;;;;;3.83;1.23;;;;;;;25.92;28.27;101605.16;4956461;29;20057;-48
2022/04/19 01:25:10;;;;;;;2.00;0.65;;;;;;;25.90;28.16;101598.06;4956236;29;20027;-50
2022/04/19 01:27:39;;;;;;;1.67;1.02;;;;;;;25.91;28.14;101602.47;4956672;29;20031;-51
2022/04/19 01:30:09;;;;;;;2.03;1.00;;;;;;;25.86;28.59;101591.03;4956172;29;20027;-48
2022/04/19 01:32:37;;;;;;;2.78;1.08;;;;;;;25.87;28.46;101591.03;4956158;29;20031;-50
2022/04/19 01:35:17;;;;;;;2.35;1.10;;;;;;;25.83;28.23;101586.59;4955523;29;20494;-51
2022/04/19 01:37:47;;;;;;;3.13;0.88;;;;;;;25.82;28.16;101583.94;4956429;29;20417;-51
2022/04/19 01:40:17;;;;;;;2.30;0.90;;;;;;;25.83;28.59;101589.22;4956244;29;20024;-49
2022/04/19 01:42:50;;;;;;;4.13;1.33;;;;;;;25.81;28.34;101582.19;4955968;29;20066;-50
2022/04/19 01:45:20;;;;;;;2.72;1.00;;;;;;;25.87;28.59;101593.66;4938873;29;20035;-50
2022/04/19 01:47:49;;;;;;;3.50;1.00;;;;;;;25.78;28.51;101586.53;4955711;29;20481;-50
2022/04/19 01:50:18;;;;;;;1.27;0.57;;;;;;;25.76;28.28;101585.63;4955749;29;20039;-50
2022/04/19 01:52:48;;;;;;;1.73;0.77;;;;;;;25.85;28.52;101582.25;4955820;29;20081;-50
2022/04/19 01:55:18;;;;;;;3.78;1.20;;;;;;;25.87;28.22;101582.28;4955749;29;20057;-50
2022/04/19 01:57:49;;;;;;;1.92;0.93;;;;;;;25.78;28.04;101575.16;4955948;29;20032;-50
2022/04/19 02:00:18;;;;;;;1.92;0.73;;;;;;;25.79;28.18;101577.78;4938478;29;20063;-49
2022/04/19 02:02:47;;;;;;;1.77;0.85;;;;;;;25.77;28.35;101581.25;4956007;29;20031;-50
2022/04/19 02:05:16;;;;;;;2.42;0.85;;;;;;;25.72;28.63;101575.03;4955319;29;20062;-50
2022/04/19 02:07:46;;;;;;;2.80;1.15;;;;;;;25.72;28.61;101575.03;4955440;29;20441;-46
2022/04/19 02:10:16;;;;;;;2.90;1.10;;;;;;;25.74;28.29;101570.69;4955543;29;20043;-50
2022/04/19 02:12:45;;;;;;;2.58;0.90;;;;;;;25.70;28.19;101558.38;4955637;28;20027;-50
2022/04/19 02:15:15;;;;;;;2.13;0.80;;;;;;;25.79;28.23;101574.28;4955507;29;20040;-50
2022/04/19 02:17:45;;;;;;;2.17;0.63;;;;;;;25.82;28.13;101576.06;4955649;29;20035;-51
2022/04/19 02:20:16;;;;;;;3.28;0.80;;;;;;;25.85;28.16;101573.50;4955336;29;20492;-47
2022/04/19 02:22:45;;;;;;;1.60;0.70;;;;;;;25.77;28.28;101582.13;4938001;29;20035;-51
2022/04/19 02:25:14;;;;;;;2.05;0.80;;;;;;;25.75;28.34;101588.22;4938334;29;20027;-52
2022/04/19 02:27:44;;;;;;;1.48;0.60;;;;;;;25.74;28.20;101584.69;4955288;29;20028;-50
2022/04/19 02:30:14;;;;;;;2.95;1.13;;;;;;;25.76;28.09;101584.75;4955084;29;20170;-50
2022/04/19 02:32:45;;;;;;;1.75;0.70;;;;;;;25.77;28.26;101591.78;4955197;29;20031;-52
2022/04/19 02:35:16;;;;;;;2.25;0.60;;;;;;;25.79;28.23;101590.06;4955164;29;20062;-52
2022/04/19 02:37:51;;;;;;;2.00;0.77;;;;;;;25.74;28.01;101591.72;4955646;29;20555;-50
2022/04/19 02:40:20;;;;;;;2.67;0.93;;;;;;;25.51;28.30;101563.31;4955494;29;20222;-53
2022/04/19 02:42:50;;;;;;;3.38;1.00;;;;;;;25.69;28.32;101596.91;4954801;29;20035;-51
2022/04/19 02:45:20;;;;;;;5.82;0.95;;;;;;;25.69;28.41;101594.28;4954865;29;20393;-51
2022/04/19 02:47:51;;;;;;;3.38;0.95;;;;;;;25.65;28.26;101584.56;4954646;29;20470;-52
2022/04/19 02:50:20;;;;;;;1.75;0.60;;;;;;;25.66;28.47;101588.06;4955271;29;20027;-50
2022/04/19 02:52:48;;;;;;;3.15;0.77;;;;;;;25.69;28.00;101573.25;4955036;29;20027;-49
2022/04/19 02:55:17;;;;;;;1.23;0.60;;;;;;;25.73;28.40;101587.31;4954982;29;20074;-51
2022/04/19 02:57:45;;;;;;;1.63;0.80;;;;;;;25.71;28.25;101589.94;4955143;29;20053;-48
2022/04/19 03:00:14;;;;;;;2.88;0.75;;;;;;;25.71;28.22;101584.69;4955077;29;20036;-51
2022/04/19 03:02:43;;;;;;;2.40;0.82;;;;;;;25.70;28.02;101593.44;4955634;29;20037;-51
2022/04/19 03:05:11;;;;;;;2.45;0.63;;;;;;;25.72;28.01;101585.56;4954675;29;20521;-54
2022/04/19 03:07:40;;;;;;;1.20;0.73;;;;;;;25.59;28.19;101584.47;4955270;29;20028;-50
2022/04/19 03:10:09;;;;;;;4.38;0.73;;;;;;;25.74;27.93;101589.97;4955008;29;20082;-49
2022/04/19 03:12:38;;;;;;;1.13;0.50;;;;;;;25.73;28.20;101592.56;4937908;29;20027;-51
2022/04/19 03:15:07;;;;;;;1.67;0.60;;;;;;;25.71;27.79;101586.41;4955030;29;20034;-52
2022/04/19 03:17:35;;;;;;;2.97;0.70;;;;;;;25.77;28.02;101589.16;4955114;29;20016;-49
2022/04/19 03:20:07;;;;;;;1.60;0.50;;;;;;;25.69;28.10;101585.50;4954830;29;20111;-51
2022/04/19 03:28:12;;;;;;;1.15;0.80;;;;;;;25.62;28.18;101582.78;4954704;29;20039;-51
2022/04/19 03:30:41;;;;;;;1.75;0.70;;;;;;;25.66;28.03;101590.69;4958475;29;20152;-52
2022/04/19 03:33:09;;;;;;;3.63;0.75;;;;;;;25.70;28.05;101590.78;4958067;29;20034;-54
2022/04/19 03:35:38;;;;;;;0.75;0.43;;;;;;;25.58;28.29;101586.22;4958206;29;20133;-54
2022/04/19 03:38:07;;;;;;;0.70;0.47;;;;;;;25.59;28.04;101593.25;4958320;29;20032;-52
2022/04/19 03:40:35;;;;;;;2.78;0.80;;;;;;;25.70;27.85;101589.91;4958301;29;20381;-54
2022/04/19 03:43:07;;;;;;;3.80;1.33;;;;;;;25.63;27.90;101581.03;4941764;29;20058;-53
2022/04/19 03:45:36;;;;;;;1.90;0.68;;;;;;;25.52;28.29;101588.75;4958878;29;20030;-51
2022/04/19 03:48:05;;;;;;;1.25;0.70;;;;;;;25.52;27.93;101580.84;4957982;29;20484;-52
2022/04/19 03:50:34;;;;;;;1.58;0.57;;;;;;;25.62;27.75;101581.91;4958061;29;20039;-54
2022/04/19 03:53:03;;;;;;;1.48;0.68;;;;;;;25.58;28.12;101580.97;4958161;29;20032;-52
2022/04/19 03:55:31;;;;;;;1.67;0.50;;;;;;;25.52;28.13;101580.00;4958334;29;20177;-53
2022/04/19 03:57:59;;;;;;;2.10;0.80;;;;;;;25.52;28.24;101586.13;4957941;29;20046;-52
2022/04/19 04:00:28;;;;;;;2.03;0.75;;;;;;;25.53;28.27;101587.88;4958238;29;20027;-50
2022/04/19 04:02:57;;;;;;;1.40;0.52;;;;;;;25.50;27.88;101594.84;4957480;29;20027;-53
2022/04/19 04:05:25;;;;;;;1.40;0.65;;;;;;;25.56;27.89;101598.44;4958342;29;20102;-51
2022/04/19 04:07:56;;;;;;;3.05;0.70;;;;;;;25.54;27.77;101584.41;4957544;29;20496;-52
2022/04/19 04:10:24;;;;;;;2.85;0.60;;;;;;;25.55;27.75;101583.53;4940859;29;20082;-53
2022/04/19 04:12:53;;;;;;;2.08;0.82;;;;;;;25.56;27.72;101581.81;4957561;29;20388;-52
2022/04/19 04:15:21;;;;;;;1.70;0.50;;;;;;;25.45;28.13;101594.78;4957271;29;20471;-52
2022/04/19 04:17:48;;;;;;;3.05;0.82;;;;;;;25.45;28.25;101593.00;4957518;29;20035;-51
2022/04/19 04:20:17;;;;;;;1.20;0.47;;;;;;;25.44;27.91;101591.25;4957815;29;20031;-52
2022/04/19 04:22:46;;;;;;;1.30;0.50;;;;;;;25.50;28.12;101593.09;4957343;29;20055;-51
2022/04/19 04:25:14;;;;;;;1.17;0.50;;;;;;;25.48;28.06;101589.56;4957289;29;20488;-48
2022/04/19 04:27:43;;;;;;;1.42;0.50;;;;;;;25.40;27.99;101592.00;4957561;29;20441;-47
2022/04/19 04:30:11;;;;;;;2.58;0.77;;;;;;;25.40;27.76;101570.13;4957795;29;20381;-50
2022/04/19 04:32:40;;;;;;;1.52;0.70;;;;;;;25.41;28.09;101591.16;4940617;29;20031;-48
2022/04/19 04:35:09;;;;;;;2.78;0.85;;;;;;;25.40;27.87;101585.88;4957157;29;20098;-49
2022/04/19 04:37:38;;;;;;;1.45;0.55;;;;;;;25.42;27.71;101590.31;4956164;28;20031;-48
2022/04/19 04:40:06;;;;;;;2.30;0.93;;;;;;;25.43;28.04;101586.84;4957114;29;20362;-51
2022/04/19 04:42:35;;;;;;;1.80;0.77;;;;;;;25.34;27.98;101587.53;4957154;29;20042;-49
2022/04/19 04:45:03;;;;;;;1.83;0.60;;;;;;;25.33;27.88;101585.78;4940166;29;20034;-48
2022/04/19 04:50:19;;;;;;;1.85;0.50;;;;;;;25.47;27.69;101595.69;4936333;29;20488;-48
2022/04/19 04:52:49;;;;;;;1.92;0.60;;;;;;;25.45;27.87;101592.13;4957087;29;20027;-52
2022/04/19 04:55:18;;;;;;;4.25;1.40;;;;;;;25.37;27.72;101597.22;4956896;29;20034;-49
2022/04/19 04:57:46;;;;;;;4.82;1.00;;;;;;;25.42;27.65;101592.09;4957087;29;20027;-51
2022/04/19 05:00:15;;;;;;;2.53;0.77;;;;;;;25.46;28.01;101596.53;4956751;29;20158;-49
2022/04/19 05:02:44;;;;;;;0.47;0.40;;;;;;;25.36;27.82;101587.59;4956419;29;20031;-50
2022/04/19 05:05:12;;;;;;;1.42;0.60;;;;;;;25.16;27.74;101569.75;4939416;29;20034;-50
2022/04/19 05:07:41;;;;;;;1.58;0.60;;;;;;;25.25;28.16;101597.91;4956892;29;20099;-49
2022/04/19 05:10:10;;;;;;;1.52;0.55;;;;;;;25.30;27.60;101596.25;4956581;29;20027;-49
2022/04/19 05:12:38;;;;;;;1.83;0.52;;;;;;;25.31;27.91;101587.50;4939493;29;20442;-47
2022/04/19 05:15:07;;;;;;;1.70;0.60;;;;;;;25.28;27.73;101602.31;4956143;29;20028;-49
2022/04/19 05:17:36;;;;;;;2.28;0.40;;;;;;;25.24;27.87;101601.38;4956578;29;20474;-48
2022/04/19 05:20:05;;;;;;;1.75;0.60;;;;;;;25.33;27.57;101592.78;4956199;29;20541;-48
2022/04/19 05:22:33;;;;;;;1.55;0.52;;;;;;;25.28;27.86;101595.34;4956633;29;20031;-50
2022/04/19 05:25:02;;;;;;;2.17;0.52;;;;;;;25.24;27.69;101596.13;4956361;29;20027;-49
2022/04/19 05:27:30;;;;;;;1.33;0.57;;;;;;;25.24;27.97;101592.59;4956289;29;20046;-47
2022/04/19 05:29:59;;;;;;;1.63;0.73;;;;;;;25.23;27.66;101596.97;4956351;29;20034;-47
2022/04/19 05:32:27;;;;;;;2.28;0.75;;;;;;;25.21;27.76;101596.06;4939301;29;20031;-49
2022/04/19 05:34:56;;;;;;;0.85;0.60;;;;;;;25.21;27.98;101596.06;4955974;29;20130;-47
2022/04/19 05:37:24;;;;;;;2.92;0.80;;;;;;;25.29;27.90;101590.94;4956004;29;20082;-51
2022/04/19 05:39:53;;;;;;;2.38;0.60;;;;;;;25.28;27.71;101582.19;4956462;29;20425;-51
2022/04/19 05:42:21;;;;;;;1.17;0.63;;;;;;;25.28;27.56;101581.31;4956515;29;20516;-49
2022/04/19 05:44:49;;;;;;;1.92;0.65;;;;;;;25.26;27.56;101589.16;4923666;29;20098;-51
2022/04/19 05:47:18;;;;;;;1.98;0.60;;;;;;;25.26;28.06;101583.91;4955976;28;20035;-50
2022/04/19 05:49:46;;;;;;;1.48;0.55;;;;;;;25.30;27.49;101580.50;4956014;29;20027;-47
2022/04/19 05:52:14;;;;;;;4.38;0.70;;;;;;;25.27;27.58;101585.69;4955673;29;20392;-48
2022/04/19 05:54:42;;;;;;;1.75;0.40;;;;;;;25.27;27.81;101580.44;4955760;29;20035;-48
2022/04/19 05:57:10;;;;;;;3.13;0.70;;;;;;;25.32;27.94;101588.38;4955697;29;20032;-49
2022/04/19 05:59:37;;;;;;;1.83;0.77;;;;;;;25.36;27.92;101584.97;4956227;29;20051;-46
2022/04/19 06:04:53;;;;;;;1.63;0.65;;;;;;;25.37;27.54;101591.97;4949136;29;20134;-53
2022/04/19 06:07:21;;;;;;;1.65;0.80;;;;;;;25.39;28.02;101594.63;4955274;29;20039;-51
2022/04/19 06:09:50;;;;;;;1.35;0.90;;;;;;;25.32;28.05;101594.50;4956064;29;20027;-48
2022/04/19 06:12:17;;;;;;;2.10;0.90;;;;;;;25.33;27.82;101593.66;4955229;29;20035;-49
2022/04/19 06:14:46;;;;;;;1.13;0.52;;;;;;;25.37;27.69;101591.09;4955624;29;20027;-51
2022/04/19 06:17:16;;;;;;;1.42;0.85;;;;;;;25.36;28.15;101594.56;4938733;29;20027;-51
2022/04/19 06:19:45;;;;;;;1.35;0.77;;;;;;;25.36;27.80;101587.59;4955685;29;20114;-51
2022/04/19 06:22:14;;;;;;;2.25;1.10;;;;;;;25.36;27.79;101589.31;4955339;29;20127;-51
2022/04/19 06:24:42;;;;;;;1.30;0.70;;;;;;;25.32;27.89;101589.25;4954924;29;20035;-49
2022/04/19 06:27:11;;;;;;;4.70;1.08;;;;;;;25.33;28.36;101583.16;4937721;29;20035;-48
2022/04/19 06:29:39;;;;;;;8.13;1.00;;;;;;;25.32;28.01;101589.25;4955378;29;20082;-51
2022/04/19 06:32:08;;;;;;;2.78;0.60;;;;;;;25.35;28.29;101588.44;4955165;29;20027;-52
2022/04/19 06:34:37;;;;;;;3.47;1.05;;;;;;;25.41;28.18;101593.78;4955142;29;20059;-50
2022/04/19 06:37:05;;;;;;;5.72;1.33;;;;;;;25.43;27.92;101591.22;4955349;29;20098;-50
2022/04/19 06:39:34;;;;;;;1.92;0.80;;;;;;;25.40;28.28;101596.38;4955259;29;20039;-49
2022/04/19 06:42:03;;;;;;;2.20;0.60;;;;;;;25.40;28.27;101585.88;4955380;29;20034;-48
2022/04/19 06:44:32;;;;;;;1.67;0.65;;;;;;;25.43;28.35;101589.47;4938087;29;20032;-49
2022/04/19 06:47:00;;;;;;;1.02;0.43;;;;;;;25.41;28.33;101588.53;4954997;29;20058;-50
2022/04/19 06:49:29;;;;;;;1.95;0.60;;;;;;;25.41;28.60;101585.03;4955383;29;20027;-51
2022/04/19 06:51:58;;;;;;;2.17;0.68;;;;;;;25.45;28.33;101582.50;4954893;29;20102;-50
2022/04/19 06:54:26;;;;;;;1.75;0.40;;;;;;;25.50;28.52;101579.06;4954922;29;20086;-51
2022/04/19 06:56:55;;;;;;;1.65;0.50;;;;;;;25.53;28.39;101581.75;4938634;29;20035;-48
2022/04/19 06:59:24;;;;;;;1.80;0.50;;;;;;;25.51;28.64;101578.22;4955157;28;20027;-51
2022/04/19 07:01:53;;;;;;;1.08;0.60;;;;;;;25.55;28.67;101580.91;4959200;29;20366;-50
2022/04/19 07:04:22;;;;;;;1.65;0.50;;;;;;;25.56;28.74;101585.31;4959250;29;20467;-51
2022/04/19 07:06:50;;;;;;;2.67;1.00;;;;;;;25.55;28.97;101569.53;4958956;29;20039;-50
2022/04/19 07:09:19;;;;;;;2.60;0.90;;;;;;;25.68;28.68;101575.84;4941795;29;20023;-49
2022/04/19 07:11:47;;;;;;;4.22;0.70;;;;;;;25.74;28.66;101568.06;4958951;29;20031;-50
2022/04/19 07:14:16;;;;;;;2.30;0.80;;;;;;;25.75;29.00;101567.22;4958608;29;20042;-53
2022/04/19 07:16:44;;;;;;;2.33;0.52;;;;;;;25.80;29.09;101576.06;4958886;29;20035;-51
2022/04/19 07:19:13;;;;;;;1.90;0.60;;;;;;;25.87;29.04;101580.53;4959285;29;20046;-52
2022/04/19 07:27:21;;;;;;;1.67;0.73;;;;;;;26.00;29.07;101572.81;4948349;29;20039;-51
2022/04/19 07:29:50;;;;;;;2.35;0.80;;;;;;;26.06;29.01;101575.53;4941732;29;20046;-50
2022/04/19 07:32:19;;;;;;;2.00;0.50;;;;;;;26.09;29.17;101570.31;4958290;29;20035;-53
2022/04/19 07:34:49;;;;;;;1.15;0.60;;;;;;;26.14;29.18;101571.31;4958255;29;20047;-50
2022/04/19 07:37:17;;;;;;;1.23;0.40;;;;;;;26.17;29.18;101571.31;4941372;29;20118;-52
2022/04/19 07:39:46;;;;;;;3.53;0.50;;;;;;;26.24;29.22;101569.66;4958101;29;20023;-51
2022/04/19 07:42:15;;;;;;;1.73;0.30;;;;;;;26.28;29.05;101570.59;4958595;29;20027;-48
2022/04/19 07:44:44;;;;;;;1.02;0.43;;;;;;;26.34;29.32;101568.03;4941229;29;20527;-49
2022/04/19 07:47:14;;;;;;;3.90;0.68;;;;;;;26.41;29.14;101574.25;4958374;29;20127;-50
2022/04/19 07:49:43;;;;;;;2.40;0.55;;;;;;;26.39;28.90;101569.84;4958449;29;20082;-46
2022/04/19 07:52:11;;;;;;;1.23;0.70;;;;;;;26.48;29.33;101568.22;4958213;29;20539;-50
2022/04/19 07:54:39;;;;;;;2.58;0.50;;;;;;;26.49;29.27;101562.94;4958221;29;20110;-53
2022/04/19 07:57:08;;;;;;;2.38;0.50;;;;;;;26.57;29.31;101564.81;4957991;29;20492;-45
2022/04/19 07:59:37;;;;;;;1.50;0.60;;;;;;;26.54;29.05;101556.00;4958131;29;20027;-45
2022/04/19 08:02:06;;;;;;;2.10;0.50;;;;;;;26.62;29.18;101564.00;4957902;29;20086;-45
2022/04/19 08:04:35;;;;;;;1.48;0.60;;;;;;;26.69;29.18;101562.31;4957848;29;20031;-47
2022/04/19 08:07:04;;;;;;;0.85;0.50;;;;;;;26.69;29.25;101551.78;4958169;29;20035;-46
2022/04/19 08:09:32;;;;;;;2.10;0.85;;;;;;;26.73;29.21;101550.94;4940799;29;20496;-46
2022/04/19 08:12:01;;;;;;;1.63;0.60;;;;;;;26.77;29.09;101551.84;4957279;28;20099;-49
2022/04/19 08:14:30;;;;;;;1.25;0.45;;;;;;;26.84;28.97;101549.34;4957653;29;20374;-51
2022/04/19 08:16:58;;;;;;;1.13;0.45;;;;;;;26.88;28.99;101559.91;4957105;29;20481;-55
2022/04/19 08:19:27;;;;;;;1.20;0.40;;;;;;;26.93;29.23;101548.53;4957216;29;20428;-49
2022/04/19 08:21:57;;;;;;;1.40;0.70;;;;;;;26.96;29.14;101553.84;4957382;29;20027;-47
2022/04/19 08:24:26;;;;;;;3.10;0.90;;;;;;;27.00;28.93;101546.84;4957232;29;20086;-50
2022/04/19 08:26:54;;;;;;;1.83;0.60;;;;;;;27.02;29.08;101550.38;4957277;29;20503;-49
2022/04/19 08:29:23;;;;;;;2.30;0.77;;;;;;;27.08;28.83;101542.56;4957687;29;20458;-48
2022/04/19 08:31:51;;;;;;;2.85;0.70;;;;;;;27.07;29.09;101540.78;4957144;29;20462;-52
2022/04/19 08:34:20;;;;;;;2.67;0.65;;;;;;;27.11;29.17;101545.22;4957220;29;20086;-50
2022/04/19 08:36:48;;;;;;;2.85;0.50;;;;;;;27.14;29.20;101544.34;4957647;29;20389;-51
2022/04/19 08:39:17;;;;;;;4.13;0.43;;;;;;;27.18;29.36;101539.97;4957540;29;20027;-47
2022/04/19 08:41:45;;;;;;;2.08;0.68;;;;;;;27.23;29.10;101543.53;4956757;29;20106;-50
2022/04/19 08:44:14;;;;;;;2.47;0.70;;;;;;;27.25;29.04;101542.69;4940346;29;20377;-55
2022/04/19 08:46:43;;;;;;;1.60;0.50;;;;;;;27.28;28.83;101539.22;4957095;29;20035;-53
2022/04/19 08:49:12;;;;;;;2.88;0.60;;;;;;;27.31;28.86;101536.56;4957467;29;20027;-51
2022/04/19 08:51:41;;;;;;;3.55;0.80;;;;;;;27.35;28.74;101535.72;4939952;29;20114;-53
2022/04/19 08:57:41;;;;;;;1.27;0.30;;;;;;;27.43;28.84;101536.69;4953886;29;20043;-54
2022/04/19 08:59:45;;;;;;;3.80;0.90;;;;;;;27.45;28.81;101531.41;4953276;29;20078;-54
2022/04/19 09:02:23;;;;;;;1.13;0.75;;;;;;;27.47;28.56;101526.22;4939509;29;20437;-49
2022/04/19 09:04:53;;;;;;;2.40;0.57;;;;;;;27.47;28.81;101534.13;4957453;29;20023;-54
2022/04/19 09:07:22;;;;;;;1.65;0.68;;;;;;;27.50;28.83;101532.38;4957034;29;20035;-53
2022/04/19 09:10:01;;;;;;;2.85;0.45;;;;;;;27.54;28.61;101533.28;4940224;29;20038;-49
2022/04/19 09:12:30;;;;;;;1.42;0.60;;;;;;;27.57;28.55;101523.63;4956505;29;20102;-46
2022/04/19 09:15:00;;;;;;;1.77;0.40;;;;;;;27.57;28.66;101517.47;4956691;29;20477;-46
2022/04/19 09:17:32;;;;;;;3.90;0.50;;;;;;;27.59;28.42;101513.97;4939610;29;20046;-51
2022/04/19 09:20:20;;;;;;;4.18;0.73;;;;;;;27.66;28.26;101522.81;4956479;29;20110;-47
2022/04/19 09:22:49;;;;;;;1.55;0.45;;;;;;;27.63;28.29;101519.28;4955816;28;20038;-51
2022/04/19 09:25:20;;;;;;;1.25;0.60;;;;;;;27.65;27.91;101522.81;4956460;29;20380;-49
2022/04/19 09:27:50;;;;;;;1.52;0.57;;;;;;;27.62;27.77;101523.69;4956381;29;20374;-48
2022/04/19 09:30:38;;;;;;;1.85;0.65;;;;;;;27.63;28.08;101520.16;4956685;29;20094;-46
2022/04/19 09:33:08;;;;;;;2.92;0.60;;;;;;;27.63;28.13;101520.16;4956469;29;20429;-47
2022/04/19 09:35:38;;;;;;;1.90;0.75;;;;;;;27.66;27.91;101514.88;4955905;29;20047;-45
2022/04/19 09:38:08;;;;;;;1.80;0.60;;;;;;;27.67;28.10;101514.03;4956313;29;20023;-50
2022/04/19 09:40:39;;;;;;;3.03;0.57;;;;;;;27.70;27.81;101511.41;4956734;29;20028;-48
2022/04/19 09:43:21;;;;;;;4.35;0.63;;;;;;;27.72;27.71;101514.03;4956392;29;20031;-45
2022/04/19 09:45:58;;;;;;;2.13;0.50;;;;;;;27.71;28.03;101512.31;4955999;29;20031;-50
2022/04/19 09:48:28;;;;;;;2.30;0.40;;;;;;;27.74;27.96;101509.66;4955856;29;20027;-47
2022/04/19 09:50:57;;;;;;;1.85;0.70;;;;;;;27.75;27.92;101512.31;4955805;29;20474;-48
2022/04/19 09:53:28;;;;;;;1.48;0.55;;;;;;;27.78;27.88;101508.81;4955591;29;20082;-50
2022/04/19 09:55:58;;;;;;;1.55;0.43;;;;;;;27.79;27.96;101504.44;4956106;29;20029;-48
2022/04/19 09:58:27;;;;;;;1.27;0.40;;;;;;;27.79;27.86;101504.44;4938904;29;20027;-51
2022/04/19 10:00:57;;;;;;;1.58;0.60;;;;;;;27.81;27.84;101506.19;4956011;29;20027;-50
2022/04/19 10:09:00;;;;;;;3.20;0.57;;;;;;;27.85;27.82;101494.81;4948876;29;20047;-46
2022/04/19 10:11:29;;;;;;;1.40;0.50;;;;;;;27.82;28.01;101489.50;4955699;29;20023;-48
2022/04/19 10:13:59;;;;;;;2.15;0.40;;;;;;;27.87;27.64;101492.16;4955366;29;20031;-48
2022/04/19 10:16:30;;;;;;;1.55;0.40;;;;;;;27.89;27.81;101493.06;4955878;29;20029;-46
2022/04/19 10:18:59;;;;;;;2.08;0.60;;;;;;;27.91;27.91;101488.69;4955669;29;20035;-49
2022/04/19 10:21:29;;;;;;;1.98;0.55;;;;;;;27.90;27.29;101492.19;4955539;29;20027;-46
2022/04/19 10:24:17;;;;;;;1.27;0.40;;;;;;;27.94;27.79;101496.59;4955058;29;20090;-52
2022/04/19 10:26:47;;;;;;;2.38;0.57;;;;;;;27.92;27.68;101501.00;4955348;29;20039;-48
2022/04/19 10:29:28;;;;;;;1.60;0.40;;;;;;;27.94;27.78;101488.69;4955336;29;20037;-47
2022/04/19 10:32:09;;;;;;;1.65;0.30;;;;;;;27.98;27.57;101479.91;4938603;29;20027;-48
2022/04/19 10:34:39;;;;;;;1.73;0.40;;;;;;;27.99;27.44;101480.78;4954593;28;20059;-47
2022/04/19 10:37:27;;;;;;;1.77;0.50;;;;;;;28.01;27.57;101479.06;4955314;29;20054;-48
2022/04/19 10:40:04;;;;;;;5.63;0.90;;;;;;;28.00;27.67;101474.66;4954986;29;20031;-45
2022/04/19 10:42:43;;;;;;;1.58;0.40;;;;;;;28.01;27.56;101473.78;4955730;29;20090;-48
2022/04/19 10:45:13;;;;;;;2.20;0.70;;;;;;;28.02;27.57;101471.13;4955367;29;20475;-50
2022/04/19 10:48:04;;;;;;;1.75;0.50;;;;;;;28.06;27.56;101464.09;4955084;29;20102;-49
2022/04/19 10:50:34;;;;;;;3.50;0.50;;;;;;;28.04;27.63;101469.38;4952304;29;20046;-45
2022/04/19 10:53:05;;;;;;;2.35;0.50;;;;;;;28.08;27.28;101470.28;4937678;29;20477;-48
2022/04/19 10:55:44;;;;;;;1.80;0.43;;;;;;;28.11;27.34;101466.81;4955123;29;20078;-49
2022/04/19 10:58:18;;;;;;;2.95;0.60;;;;;;;28.11;27.38;101461.53;4937815;29;20397;-53
2022/04/19 11:00:48;;;;;;;3.78;1.23;;;;;;;28.09;24.72;101469.41;4955309;29;20115;-51
2022/04/19 11:03:20;;;;;;;5.28;0.88;;;;;;;27.96;23.76;101468.50;4955096;29;20106;-51
2022/04/19 11:05:50;;;;;;;3.83;0.77;;;;;;;27.82;23.55;101473.69;4938514;29;20058;-47
2022/04/19 11:08:27;;;;;;;1.88;0.73;;;;;;;27.78;23.48;101476.31;4954856;29;20035;-51
2022/04/19 11:10:56;;;;;;;3.78;0.90;;;;;;;27.67;23.38;101469.22;4955085;29;20070;-48
2022/04/19 11:13:27;;;;;;;3.28;0.93;;;;;;;27.59;23.32;101473.56;4953854;29;20035;-47
2022/04/19 11:16:00;;;;;;;3.20;0.90;;;;;;;27.56;23.27;101466.50;4938315;29;20090;-48
2022/04/19 11:18:29;;;;;;;3.75;0.60;;;;;;;27.49;23.03;101470.00;4954923;29;20051;-50
2022/04/19 11:21:00;;;;;;;2.80;0.93;;;;;;;27.43;23.01;101459.38;4954895;29;20503;-48
2022/04/19 11:23:29;;;;;;;3.25;0.90;;;;;;;27.47;23.21;101461.22;4954712;29;20473;-48
2022/04/19 11:26:00;;;;;;;3.38;0.65;;;;;;;27.52;23.38;101454.22;4955011;29;20023;-48
2022/04/19 11:28:31;;;;;;;4.18;0.90;;;;;;;27.48;23.30;101454.16;4954909;29;20504;-49
2022/04/19 11:31:00;;;;;;;6.07;1.58;;;;;;;27.41;22.98;101447.94;4954802;29;20470;-51
2022/04/19 11:33:31;;;;;;;3.17;0.70;;;;;;;27.35;23.14;101446.16;4954671;29;20038;-50
2022/04/19 11:36:09;;;;;;;1.80;0.70;;;;;;;27.29;22.79;101443.50;4954744;29;20044;-52
2022/04/19 11:38:43;;;;;;;1.98;0.82;;;;;;;27.24;22.45;101456.63;4954712;29;20536;-50
2022/04/19 11:46:46;;;;;;;1.42;0.40;;;;;;;27.14;21.33;101442.50;4935983;29;20398;-49
2022/04/19 11:49:27;;;;;;;2.08;0.65;;;;;;;27.04;21.25;101438.06;4958509;29;20102;-49
2022/04/19 11:51:59;;;;;;;2.75;0.85;;;;;;;27.02;20.80;101431.88;4958491;29;20042;-47
2022/04/19 11:54:29;;;;;;;3.25;0.50;;;;;;;26.96;20.82;101434.50;4958204;29;20034;-48
2022/04/19 11:56:58;;;;;;;2.38;0.60;;;;;;;26.95;20.67;101424.84;4958467;29;20027;-51
2022/04/19 11:59:28;;;;;;;2.45;0.52;;;;;;;26.94;20.58;101423.06;4941866;29;20438;-51
2022/04/19 12:01:57;;;;;;;1.40;0.50;;;;;;;26.88;20.60;101420.38;4958123;29;20110;-50
2022/04/19 12:04:26;;;;;;;2.80;0.82;;;;;;;26.86;20.75;101411.59;4958209;29;20030;-49
2022/04/19 12:06:58;;;;;;;1.20;0.52;;;;;;;26.89;20.83;101401.09;4957872;29;20039;-52
2022/04/19 12:09:26;;;;;;;0.93;0.38;;;;;;;26.87;21.18;101390.56;4957972;29;20023;-53